sensor_id;sensor_type;location;lat;lon;timestamp;P1;durP1;ratioP1;P2;durP2;ratioP2
4766;SDS011;2397;53.576;9.746;2022-07-29T00:00:39;1.97;;;1.87;;
4766;SDS011;2397;53.576;9.746;2022-07-29T00:03:04;2.20;;;2.00;;
4766;SDS011;2397;53.576;9.746;2022-07-29T00:05:29;2.43;;;2.10;;
4766;SDS011;2397;53.576;9.746;2022-07-29T00:07:54;1.97;;;1.80;;
4766;SDS011;2397;53.576;9.746;2022-07-29T00:10:20;2.53;;;2.20;;
4766;SDS011;2397;53.576;9.746;2022-07-29T00:12:45;2.20;;;2.00;;
4766;SDS011;2397;53.576;9.746;2022-07-29T00:15:11;2.80;;;1.87;;
4766;SDS011;2397;53.576;9.746;2022-07-29T00:17:36;2.90;;;2.13;;
4766;SDS011;2397;53.576;9.746;2022-07-29T00:20:01;2.57;;;1.70;;
4766;SDS011;2397;53.576;9.746;2022-07-29T00:22:28;3.57;;;2.03;;
4766;SDS011;2397;53.576;9.746;2022-07-29T00:24:53;3.00;;;2.00;;
4766;SDS011;2397;53.576;9.746;2022-07-29T00:27:18;4.23;;;2.17;;
4766;SDS011;2397;53.576;9.746;2022-07-29T00:29:43;3.63;;;1.80;;
4766;SDS011;2397;53.576;9.746;2022-07-29T00:32:09;3.03;;;2.20;;
4766;SDS011;2397;53.576;9.746;2022-07-29T00:34:34;2.20;;;2.00;;
4766;SDS011;2397;53.576;9.746;2022-07-29T00:37:18;2.40;;;2.20;;
4766;SDS011;2397;53.576;9.746;2022-07-29T00:39:44;3.80;;;1.80;;
4766;SDS011;2397;53.576;9.746;2022-07-29T00:42:09;2.07;;;1.70;;
4766;SDS011;2397;53.576;9.746;2022-07-29T00:44:38;2.10;;;1.97;;
4766;SDS011;2397;53.576;9.746;2022-07-29T00:47:04;2.17;;;2.00;;
4766;SDS011;2397;53.576;9.746;2022-07-29T00:49:30;3.17;;;2.10;;
4766;SDS011;2397;53.576;9.746;2022-07-29T00:51:55;2.60;;;2.40;;
4766;SDS011;2397;53.576;9.746;2022-07-29T00:54:21;2.30;;;2.10;;
4766;SDS011;2397;53.576;9.746;2022-07-29T00:56:47;3.20;;;2.10;;
4766;SDS011;2397;53.576;9.746;2022-07-29T00:59:12;4.43;;;2.50;;
4766;SDS011;2397;53.576;9.746;2022-07-29T01:01:37;2.23;;;2.03;;
4766;SDS011;2397;53.576;9.746;2022-07-29T01:04:02;2.43;;;2.20;;
4766;SDS011;2397;53.576;9.746;2022-07-29T01:06:28;3.20;;;2.00;;
4766;SDS011;2397;53.576;9.746;2022-07-29T01:08:53;2.40;;;2.20;;
4766;SDS011;2397;53.576;9.746;2022-07-29T01:11:19;3.23;;;2.10;;
4766;SDS011;2397;53.576;9.746;2022-07-29T01:13:45;4.63;;;2.23;;
4766;SDS011;2397;53.576;9.746;2022-07-29T01:16:17;2.10;;;1.90;;
4766;SDS011;2397;53.576;9.746;2022-07-29T01:18:46;5.83;;;2.30;;
4766;SDS011;2397;53.576;9.746;2022-07-29T01:21:27;2.50;;;2.30;;
4766;SDS011;2397;53.576;9.746;2022-07-29T01:26:49;4.40;;;2.33;;
4766;SDS011;2397;53.576;9.746;2022-07-29T01:34:41;2.33;;;2.10;;
4766;SDS011;2397;53.576;9.746;2022-07-29T01:37:17;2.53;;;2.07;;
4766;SDS011;2397;53.576;9.746;2022-07-29T01:39:45;3.40;;;2.47;;
4766;SDS011;2397;53.576;9.746;2022-07-29T01:45:03;3.30;;;2.20;;
4766;SDS011;2397;53.576;9.746;2022-07-29T01:47:35;3.13;;;2.47;;
4766;SDS011;2397;53.576;9.746;2022-07-29T01:50:07;4.00;;;2.30;;
4766;SDS011;2397;53.576;9.746;2022-07-29T01:52:45;2.60;;;2.10;;
4766;SDS011;2397;53.576;9.746;2022-07-29T01:55:14;4.87;;;2.60;;
4766;SDS011;2397;53.576;9.746;2022-07-29T01:57:45;2.27;;;2.07;;
4766;SDS011;2397;53.576;9.746;2022-07-29T02:00:12;2.60;;;2.37;;
4766;SDS011;2397;53.576;9.746;2022-07-29T02:02:39;2.40;;;2.20;;
4766;SDS011;2397;53.576;9.746;2022-07-29T02:05:06;7.97;;;3.10;;
4766;SDS011;2397;53.576;9.746;2022-07-29T02:07:34;3.53;;;2.43;;
4766;SDS011;2397;53.576;9.746;2022-07-29T02:10:02;3.50;;;2.10;;
4766;SDS011;2397;53.576;9.746;2022-07-29T02:12:30;5.78;;;2.30;;
4766;SDS011;2397;53.576;9.746;2022-07-29T02:14:57;6.83;;;2.47;;
4766;SDS011;2397;53.576;9.746;2022-07-29T02:17:41;6.70;;;2.90;;
4766;SDS011;2397;53.576;9.746;2022-07-29T02:20:23;3.50;;;2.37;;
4766;SDS011;2397;53.576;9.746;2022-07-29T02:22:50;2.60;;;2.40;;
4766;SDS011;2397;53.576;9.746;2022-07-29T02:25:18;2.87;;;2.50;;
4766;SDS011;2397;53.576;9.746;2022-07-29T02:27:47;3.08;;;2.40;;
4766;SDS011;2397;53.576;9.746;2022-07-29T02:30:15;3.03;;;2.30;;
4766;SDS011;2397;53.576;9.746;2022-07-29T02:32:41;2.77;;;2.50;;
4766;SDS011;2397;53.576;9.746;2022-07-29T02:35:08;2.70;;;2.50;;
4766;SDS011;2397;53.576;9.746;2022-07-29T02:37:35;3.10;;;2.50;;
4766;SDS011;2397;53.576;9.746;2022-07-29T02:40:02;4.23;;;2.40;;
4766;SDS011;2397;53.576;9.746;2022-07-29T02:42:28;4.07;;;2.23;;
4766;SDS011;2397;53.576;9.746;2022-07-29T02:44:56;3.93;;;2.53;;
4766;SDS011;2397;53.576;9.746;2022-07-29T02:47:27;2.90;;;2.37;;
4766;SDS011;2397;53.576;9.746;2022-07-29T02:52:35;6.85;;;2.70;;
4766;SDS011;2397;53.576;9.746;2022-07-29T02:57:57;3.00;;;2.43;;
4766;SDS011;2397;53.576;9.746;2022-07-29T03:00:26;3.20;;;2.40;;
4766;SDS011;2397;53.576;9.746;2022-07-29T03:02:55;2.30;;;2.10;;
4766;SDS011;2397;53.576;9.746;2022-07-29T03:05:23;2.70;;;2.50;;
4766;SDS011;2397;53.576;9.746;2022-07-29T03:07:54;6.70;;;2.30;;
4766;SDS011;2397;53.576;9.746;2022-07-29T03:10:25;3.03;;;2.60;;
4766;SDS011;2397;53.576;9.746;2022-07-29T03:12:51;3.60;;;2.83;;
4766;SDS011;2397;53.576;9.746;2022-07-29T03:15:19;2.80;;;2.60;;
4766;SDS011;2397;53.576;9.746;2022-07-29T03:17:45;2.60;;;2.20;;
4766;SDS011;2397;53.576;9.746;2022-07-29T03:20:11;2.70;;;2.50;;
4766;SDS011;2397;53.576;9.746;2022-07-29T03:22:38;3.13;;;2.50;;
4766;SDS011;2397;53.576;9.746;2022-07-29T03:25:08;2.80;;;2.30;;
4766;SDS011;2397;53.576;9.746;2022-07-29T03:27:35;3.77;;;2.70;;
4766;SDS011;2397;53.576;9.746;2022-07-29T03:30:00;2.50;;;2.30;;
4766;SDS011;2397;53.576;9.746;2022-07-29T03:32:25;2.70;;;2.40;;
4766;SDS011;2397;53.576;9.746;2022-07-29T03:34:50;3.10;;;2.40;;
4766;SDS011;2397;53.576;9.746;2022-07-29T03:37:16;2.80;;;2.40;;
4766;SDS011;2397;53.576;9.746;2022-07-29T03:39:41;3.50;;;3.13;;
4766;SDS011;2397;53.576;9.746;2022-07-29T03:42:10;2.83;;;2.38;;
4766;SDS011;2397;53.576;9.746;2022-07-29T03:44:39;2.70;;;2.50;;
4766;SDS011;2397;53.576;9.746;2022-07-29T03:47:06;2.80;;;2.30;;
4766;SDS011;2397;53.576;9.746;2022-07-29T03:49:34;3.30;;;2.60;;
4766;SDS011;2397;53.576;9.746;2022-07-29T03:52:01;5.40;;;2.70;;
4766;SDS011;2397;53.576;9.746;2022-07-29T03:54:27;3.67;;;2.37;;
4766;SDS011;2397;53.576;9.746;2022-07-29T03:56:52;3.80;;;2.50;;
4766;SDS011;2397;53.576;9.746;2022-07-29T03:59:18;2.97;;;2.50;;
4766;SDS011;2397;53.576;9.746;2022-07-29T04:01:46;3.47;;;2.50;;
4766;SDS011;2397;53.576;9.746;2022-07-29T04:04:12;3.87;;;2.90;;
4766;SDS011;2397;53.576;9.746;2022-07-29T04:06:38;3.57;;;2.83;;
4766;SDS011;2397;53.576;9.746;2022-07-29T04:09:05;2.87;;;2.50;;
4766;SDS011;2397;53.576;9.746;2022-07-29T04:11:30;2.63;;;2.33;;
4766;SDS011;2397;53.576;9.746;2022-07-29T04:13:55;2.80;;;2.40;;
4766;SDS011;2397;53.576;9.746;2022-07-29T04:16:21;7.10;;;2.30;;
4766;SDS011;2397;53.576;9.746;2022-07-29T04:18:46;3.43;;;2.30;;
4766;SDS011;2397;53.576;9.746;2022-07-29T04:21:11;5.90;;;3.00;;
4766;SDS011;2397;53.576;9.746;2022-07-29T04:23:36;4.70;;;3.10;;
4766;SDS011;2397;53.576;9.746;2022-07-29T04:26:02;2.80;;;2.50;;
4766;SDS011;2397;53.576;9.746;2022-07-29T04:28:27;3.60;;;2.50;;
4766;SDS011;2397;53.576;9.746;2022-07-29T04:30:53;5.37;;;2.70;;
4766;SDS011;2397;53.576;9.746;2022-07-29T04:33:18;5.53;;;2.97;;
4766;SDS011;2397;53.576;9.746;2022-07-29T04:35:43;4.47;;;2.93;;
4766;SDS011;2397;53.576;9.746;2022-07-29T04:38:08;3.87;;;2.90;;
4766;SDS011;2397;53.576;9.746;2022-07-29T04:40:34;5.03;;;3.20;;
4766;SDS011;2397;53.576;9.746;2022-07-29T04:42:59;4.50;;;2.70;;
4766;SDS011;2397;53.576;9.746;2022-07-29T04:45:25;4.00;;;3.00;;
4766;SDS011;2397;53.576;9.746;2022-07-29T04:47:51;3.57;;;2.70;;
4766;SDS011;2397;53.576;9.746;2022-07-29T04:50:16;5.43;;;3.20;;
4766;SDS011;2397;53.576;9.746;2022-07-29T04:52:41;2.87;;;2.67;;
4766;SDS011;2397;53.576;9.746;2022-07-29T04:55:07;7.67;;;3.13;;
4766;SDS011;2397;53.576;9.746;2022-07-29T04:57:32;5.53;;;3.30;;
4766;SDS011;2397;53.576;9.746;2022-07-29T04:59:58;5.70;;;3.20;;
4766;SDS011;2397;53.576;9.746;2022-07-29T05:02:23;3.40;;;3.10;;
4766;SDS011;2397;53.576;9.746;2022-07-29T05:04:48;3.30;;;2.77;;
4766;SDS011;2397;53.576;9.746;2022-07-29T05:07:14;2.87;;;2.67;;
4766;SDS011;2397;53.576;9.746;2022-07-29T05:09:39;4.67;;;3.03;;
4766;SDS011;2397;53.576;9.746;2022-07-29T05:12:04;5.20;;;2.90;;
4766;SDS011;2397;53.576;9.746;2022-07-29T05:14:30;3.47;;;3.17;;
4766;SDS011;2397;53.576;9.746;2022-07-29T05:16:55;4.00;;;3.10;;
4766;SDS011;2397;53.576;9.746;2022-07-29T05:19:22;9.40;;;3.40;;
4766;SDS011;2397;53.576;9.746;2022-07-29T05:21:48;15.53;;;4.63;;
4766;SDS011;2397;53.576;9.746;2022-07-29T05:24:13;7.83;;;3.60;;
4766;SDS011;2397;53.576;9.746;2022-07-29T05:26:38;32.83;;;5.30;;
4766;SDS011;2397;53.576;9.746;2022-07-29T05:29:04;13.38;;;4.20;;
4766;SDS011;2397;53.576;9.746;2022-07-29T05:31:29;21.13;;;4.50;;
4766;SDS011;2397;53.576;9.746;2022-07-29T05:33:54;9.53;;;4.37;;
4766;SDS011;2397;53.576;9.746;2022-07-29T05:36:20;9.17;;;3.73;;
4766;SDS011;2397;53.576;9.746;2022-07-29T05:38:45;6.90;;;3.00;;
4766;SDS011;2397;53.576;9.746;2022-07-29T05:41:10;5.20;;;2.90;;
4766;SDS011;2397;53.576;9.746;2022-07-29T05:43:35;4.30;;;3.50;;
4766;SDS011;2397;53.576;9.746;2022-07-29T05:46:02;3.60;;;3.20;;
4766;SDS011;2397;53.576;9.746;2022-07-29T05:48:27;3.77;;;3.00;;
4766;SDS011;2397;53.576;9.746;2022-07-29T05:50:53;3.63;;;3.07;;
4766;SDS011;2397;53.576;9.746;2022-07-29T05:53:18;6.50;;;3.23;;
4766;SDS011;2397;53.576;9.746;2022-07-29T05:55:43;4.50;;;2.90;;
4766;SDS011;2397;53.576;9.746;2022-07-29T05:58:09;4.00;;;3.53;;
4766;SDS011;2397;53.576;9.746;2022-07-29T06:00:34;11.13;;;4.33;;
4766;SDS011;2397;53.576;9.746;2022-07-29T06:02:59;16.17;;;4.80;;
4766;SDS011;2397;53.576;9.746;2022-07-29T06:05:25;12.83;;;4.77;;
4766;SDS011;2397;53.576;9.746;2022-07-29T06:07:50;26.63;;;4.80;;
4766;SDS011;2397;53.576;9.746;2022-07-29T06:10:15;5.57;;;3.10;;
4766;SDS011;2397;53.576;9.746;2022-07-29T06:12:41;4.03;;;3.07;;
4766;SDS011;2397;53.576;9.746;2022-07-29T06:15:06;6.50;;;3.37;;
4766;SDS011;2397;53.576;9.746;2022-07-29T06:17:32;4.80;;;3.42;;
4766;SDS011;2397;53.576;9.746;2022-07-29T06:19:57;7.70;;;3.60;;
4766;SDS011;2397;53.576;9.746;2022-07-29T06:22:22;9.30;;;3.20;;
4766;SDS011;2397;53.576;9.746;2022-07-29T06:24:48;7.13;;;3.07;;
4766;SDS011;2397;53.576;9.746;2022-07-29T06:27:13;4.10;;;3.13;;
4766;SDS011;2397;53.576;9.746;2022-07-29T06:29:39;8.23;;;3.10;;
4766;SDS011;2397;53.576;9.746;2022-07-29T06:32:04;2.93;;;2.60;;
4766;SDS011;2397;53.576;9.746;2022-07-29T06:34:30;5.87;;;3.13;;
4766;SDS011;2397;53.576;9.746;2022-07-29T06:36:55;4.20;;;2.73;;
4766;SDS011;2397;53.576;9.746;2022-07-29T06:39:20;6.10;;;3.23;;
4766;SDS011;2397;53.576;9.746;2022-07-29T06:41:46;9.30;;;3.40;;
4766;SDS011;2397;53.576;9.746;2022-07-29T06:44:13;5.53;;;3.30;;
4766;SDS011;2397;53.576;9.746;2022-07-29T06:46:39;3.50;;;2.90;;
4766;SDS011;2397;53.576;9.746;2022-07-29T06:49:04;11.07;;;3.90;;
4766;SDS011;2397;53.576;9.746;2022-07-29T06:51:29;6.00;;;2.90;;
4766;SDS011;2397;53.576;9.746;2022-07-29T06:53:55;4.90;;;2.80;;
4766;SDS011;2397;53.576;9.746;2022-07-29T06:56:22;5.90;;;2.92;;
4766;SDS011;2397;53.576;9.746;2022-07-29T06:58:47;7.40;;;3.03;;
4766;SDS011;2397;53.576;9.746;2022-07-29T07:01:12;5.83;;;3.10;;
4766;SDS011;2397;53.576;9.746;2022-07-29T07:03:38;6.03;;;3.10;;
4766;SDS011;2397;53.576;9.746;2022-07-29T07:06:03;6.80;;;3.20;;
4766;SDS011;2397;53.576;9.746;2022-07-29T07:08:28;5.97;;;3.53;;
4766;SDS011;2397;53.576;9.746;2022-07-29T07:10:54;5.40;;;3.17;;
4766;SDS011;2397;53.576;9.746;2022-07-29T07:13:20;4.20;;;2.97;;
4766;SDS011;2397;53.576;9.746;2022-07-29T07:15:45;7.20;;;3.47;;
4766;SDS011;2397;53.576;9.746;2022-07-29T07:18:12;3.20;;;2.97;;
4766;SDS011;2397;53.576;9.746;2022-07-29T07:20:38;6.40;;;3.23;;
4766;SDS011;2397;53.576;9.746;2022-07-29T07:23:04;8.53;;;2.90;;
4766;SDS011;2397;53.576;9.746;2022-07-29T07:25:29;6.77;;;2.97;;
4766;SDS011;2397;53.576;9.746;2022-07-29T07:27:55;9.07;;;3.22;;
4766;SDS011;2397;53.576;9.746;2022-07-29T07:30:20;7.57;;;3.00;;
4766;SDS011;2397;53.576;9.746;2022-07-29T07:32:46;3.30;;;2.87;;
4766;SDS011;2397;53.576;9.746;2022-07-29T07:35:11;6.27;;;3.47;;
4766;SDS011;2397;53.576;9.746;2022-07-29T07:37:37;5.43;;;3.07;;
4766;SDS011;2397;53.576;9.746;2022-07-29T07:40:05;4.53;;;2.72;;
4766;SDS011;2397;53.576;9.746;2022-07-29T07:42:31;7.43;;;3.15;;
4766;SDS011;2397;53.576;9.746;2022-07-29T07:44:57;2.80;;;2.60;;
4766;SDS011;2397;53.576;9.746;2022-07-29T07:47:22;4.47;;;3.03;;
4766;SDS011;2397;53.576;9.746;2022-07-29T07:49:49;5.60;;;3.17;;
4766;SDS011;2397;53.576;9.746;2022-07-29T07:52:15;6.73;;;3.40;;
4766;SDS011;2397;53.576;9.746;2022-07-29T07:54:42;3.40;;;3.00;;
4766;SDS011;2397;53.576;9.746;2022-07-29T07:57:11;8.53;;;3.40;;
4766;SDS011;2397;53.576;9.746;2022-07-29T07:59:37;5.07;;;3.00;;
4766;SDS011;2397;53.576;9.746;2022-07-29T08:02:02;4.43;;;3.10;;
4766;SDS011;2397;53.576;9.746;2022-07-29T08:04:28;4.97;;;3.10;;
4766;SDS011;2397;53.576;9.746;2022-07-29T08:06:53;6.63;;;3.10;;
4766;SDS011;2397;53.576;9.746;2022-07-29T08:09:19;5.20;;;3.27;;
4766;SDS011;2397;53.576;9.746;2022-07-29T08:11:45;8.77;;;3.20;;
4766;SDS011;2397;53.576;9.746;2022-07-29T08:14:11;6.03;;;3.20;;
4766;SDS011;2397;53.576;9.746;2022-07-29T08:16:36;6.70;;;3.00;;
4766;SDS011;2397;53.576;9.746;2022-07-29T08:19:01;9.73;;;3.13;;
4766;SDS011;2397;53.576;9.746;2022-07-29T08:21:26;5.90;;;2.90;;
4766;SDS011;2397;53.576;9.746;2022-07-29T08:23:52;6.83;;;3.10;;
4766;SDS011;2397;53.576;9.746;2022-07-29T08:26:18;4.97;;;3.17;;
4766;SDS011;2397;53.576;9.746;2022-07-29T08:28:45;3.00;;;2.70;;
4766;SDS011;2397;53.576;9.746;2022-07-29T08:31:13;6.10;;;3.20;;
4766;SDS011;2397;53.576;9.746;2022-07-29T08:33:39;4.90;;;3.20;;
4766;SDS011;2397;53.576;9.746;2022-07-29T08:36:04;3.43;;;2.70;;
4766;SDS011;2397;53.576;9.746;2022-07-29T08:38:31;3.30;;;3.00;;
4766;SDS011;2397;53.576;9.746;2022-07-29T08:40:56;8.67;;;3.00;;
4766;SDS011;2397;53.576;9.746;2022-07-29T08:43:22;5.60;;;2.93;;
4766;SDS011;2397;53.576;9.746;2022-07-29T08:45:49;8.70;;;3.07;;
4766;SDS011;2397;53.576;9.746;2022-07-29T08:48:17;3.30;;;2.97;;
4766;SDS011;2397;53.576;9.746;2022-07-29T08:50:44;3.43;;;2.80;;
4766;SDS011;2397;53.576;9.746;2022-07-29T08:53:10;4.73;;;2.97;;
4766;SDS011;2397;53.576;9.746;2022-07-29T08:55:41;5.30;;;3.10;;
4766;SDS011;2397;53.576;9.746;2022-07-29T08:58:08;10.97;;;3.00;;
4766;SDS011;2397;53.576;9.746;2022-07-29T09:00:34;2.87;;;2.47;;
4766;SDS011;2397;53.576;9.746;2022-07-29T09:03:01;10.83;;;3.30;;
4766;SDS011;2397;53.576;9.746;2022-07-29T09:05:29;3.93;;;3.43;;
4766;SDS011;2397;53.576;9.746;2022-07-29T09:07:55;3.30;;;3.00;;
4766;SDS011;2397;53.576;9.746;2022-07-29T09:10:20;3.27;;;2.53;;
4766;SDS011;2397;53.576;9.746;2022-07-29T09:12:46;3.97;;;2.60;;
4766;SDS011;2397;53.576;9.746;2022-07-29T09:15:11;7.10;;;2.73;;
4766;SDS011;2397;53.576;9.746;2022-07-29T09:17:44;3.93;;;2.73;;
4766;SDS011;2397;53.576;9.746;2022-07-29T09:20:11;12.90;;;3.17;;
4766;SDS011;2397;53.576;9.746;2022-07-29T09:22:38;2.93;;;2.50;;
4766;SDS011;2397;53.576;9.746;2022-07-29T09:25:03;5.90;;;2.80;;
4766;SDS011;2397;53.576;9.746;2022-07-29T09:27:29;2.90;;;2.60;;
4766;SDS011;2397;53.576;9.746;2022-07-29T09:30:15;4.30;;;3.00;;
4766;SDS011;2397;53.576;9.746;2022-07-29T09:32:56;5.03;;;3.40;;
4766;SDS011;2397;53.576;9.746;2022-07-29T09:35:23;7.23;;;2.97;;
4766;SDS011;2397;53.576;9.746;2022-07-29T09:37:50;2.40;;;2.20;;
4766;SDS011;2397;53.576;9.746;2022-07-29T09:40:20;10.55;;;3.13;;
4766;SDS011;2397;53.576;9.746;2022-07-29T09:42:50;6.72;;;2.70;;
4766;SDS011;2397;53.576;9.746;2022-07-29T09:45:26;2.87;;;2.60;;
4766;SDS011;2397;53.576;9.746;2022-07-29T09:47:56;3.83;;;2.50;;
4766;SDS011;2397;53.576;9.746;2022-07-29T09:50:40;3.90;;;2.83;;
4766;SDS011;2397;53.576;9.746;2022-07-29T09:53:07;3.30;;;2.40;;
4766;SDS011;2397;53.576;9.746;2022-07-29T09:55:45;4.85;;;2.45;;
4766;SDS011;2397;53.576;9.746;2022-07-29T09:58:16;3.63;;;2.40;;
4766;SDS011;2397;53.576;9.746;2022-07-29T10:00:46;4.97;;;3.07;;
4766;SDS011;2397;53.576;9.746;2022-07-29T10:03:13;5.97;;;2.97;;
4766;SDS011;2397;53.576;9.746;2022-07-29T10:05:39;2.77;;;2.57;;
4766;SDS011;2397;53.576;9.746;2022-07-29T10:08:05;4.80;;;2.27;;
4766;SDS011;2397;53.576;9.746;2022-07-29T10:10:33;4.10;;;2.40;;
4766;SDS011;2397;53.576;9.746;2022-07-29T10:13:01;4.33;;;2.60;;
4766;SDS011;2397;53.576;9.746;2022-07-29T10:15:29;2.93;;;2.53;;
4766;SDS011;2397;53.576;9.746;2022-07-29T10:17:57;5.50;;;2.57;;
4766;SDS011;2397;53.576;9.746;2022-07-29T10:20:23;3.20;;;2.47;;
4766;SDS011;2397;53.576;9.746;2022-07-29T10:22:50;3.40;;;2.20;;
4766;SDS011;2397;53.576;9.746;2022-07-29T10:25:16;5.50;;;2.80;;
4766;SDS011;2397;53.576;9.746;2022-07-29T10:27:43;3.47;;;2.50;;
4766;SDS011;2397;53.576;9.746;2022-07-29T10:30:09;5.50;;;2.27;;
4766;SDS011;2397;53.576;9.746;2022-07-29T10:32:42;4.47;;;2.30;;
4766;SDS011;2397;53.576;9.746;2022-07-29T10:43:51;2.58;;;2.25;;
4766;SDS011;2397;53.576;9.746;2022-07-29T10:46:20;4.23;;;2.60;;
4766;SDS011;2397;53.576;9.746;2022-07-29T10:59:38;3.30;;;2.80;;
4766;SDS011;2397;53.576;9.746;2022-07-29T11:02:40;3.00;;;2.70;;
4766;SDS011;2397;53.576;9.746;2022-07-29T11:07:23;3.03;;;2.43;;
4766;SDS011;2397;53.576;9.746;2022-07-29T11:15:02;2.40;;;2.20;;
4766;SDS011;2397;53.576;9.746;2022-07-29T11:20:33;4.60;;;2.57;;
4766;SDS011;2397;53.576;9.746;2022-07-29T11:23:00;5.03;;;2.70;;
4766;SDS011;2397;53.576;9.746;2022-07-29T11:25:26;4.37;;;2.40;;
4766;SDS011;2397;53.576;9.746;2022-07-29T11:28:07;3.23;;;2.50;;
4766;SDS011;2397;53.576;9.746;2022-07-29T11:30:48;3.67;;;2.30;;
4766;SDS011;2397;53.576;9.746;2022-07-29T11:33:31;5.67;;;2.37;;
4766;SDS011;2397;53.576;9.746;2022-07-29T11:36:07;5.93;;;2.47;;
4766;SDS011;2397;53.576;9.746;2022-07-29T11:38:35;7.10;;;2.17;;
4766;SDS011;2397;53.576;9.746;2022-07-29T11:41:20;10.00;;;2.57;;
4766;SDS011;2397;53.576;9.746;2022-07-29T11:46:41;4.13;;;2.30;;
4766;SDS011;2397;53.576;9.746;2022-07-29T11:49:23;4.00;;;2.37;;
4766;SDS011;2397;53.576;9.746;2022-07-29T11:51:53;4.13;;;2.27;;
4766;SDS011;2397;53.576;9.746;2022-07-29T11:54:27;9.90;;;2.20;;
4766;SDS011;2397;53.576;9.746;2022-07-29T11:56:57;4.60;;;2.30;;
4766;SDS011;2397;53.576;9.746;2022-07-29T11:59:23;3.67;;;2.13;;
4766;SDS011;2397;53.576;9.746;2022-07-29T12:01:56;2.17;;;1.93;;
4766;SDS011;2397;53.576;9.746;2022-07-29T12:04:22;5.77;;;1.90;;
4766;SDS011;2397;53.576;9.746;2022-07-29T12:06:55;8.00;;;1.97;;
4766;SDS011;2397;53.576;9.746;2022-07-29T12:09:21;4.10;;;2.60;;
4766;SDS011;2397;53.576;9.746;2022-07-29T12:11:48;3.20;;;2.33;;
4766;SDS011;2397;53.576;9.746;2022-07-29T12:14:27;3.20;;;2.50;;
4766;SDS011;2397;53.576;9.746;2022-07-29T12:16:54;2.75;;;2.20;;
4766;SDS011;2397;53.576;9.746;2022-07-29T12:19:19;2.33;;;2.13;;
4766;SDS011;2397;53.576;9.746;2022-07-29T12:21:48;2.77;;;2.20;;
4766;SDS011;2397;53.576;9.746;2022-07-29T12:24:17;2.97;;;2.28;;
4766;SDS011;2397;53.576;9.746;2022-07-29T12:26:54;2.03;;;1.83;;
4766;SDS011;2397;53.576;9.746;2022-07-29T12:29:21;4.00;;;2.00;;
4766;SDS011;2397;53.576;9.746;2022-07-29T12:31:46;3.90;;;2.50;;
4766;SDS011;2397;53.576;9.746;2022-07-29T12:34:19;5.10;;;2.47;;
4766;SDS011;2397;53.576;9.746;2022-07-29T12:36:47;4.38;;;2.30;;
4766;SDS011;2397;53.576;9.746;2022-07-29T12:39:14;2.80;;;2.23;;
4766;SDS011;2397;53.576;9.746;2022-07-29T12:41:41;6.33;;;2.97;;
4766;SDS011;2397;53.576;9.746;2022-07-29T12:44:06;5.00;;;2.30;;
4766;SDS011;2397;53.576;9.746;2022-07-29T12:46:32;5.80;;;2.40;;
4766;SDS011;2397;53.576;9.746;2022-07-29T12:48:57;4.50;;;2.37;;
4766;SDS011;2397;53.576;9.746;2022-07-29T12:51:33;3.60;;;2.00;;
4766;SDS011;2397;53.576;9.746;2022-07-29T12:54:08;4.40;;;2.20;;
4766;SDS011;2397;53.576;9.746;2022-07-29T12:56:35;3.00;;;2.23;;
4766;SDS011;2397;53.576;9.746;2022-07-29T12:59:20;6.40;;;2.80;;
4766;SDS011;2397;53.576;9.746;2022-07-29T13:01:47;4.27;;;2.20;;
4766;SDS011;2397;53.576;9.746;2022-07-29T13:04:27;3.80;;;2.07;;
4766;SDS011;2397;53.576;9.746;2022-07-29T13:06:58;5.60;;;2.23;;
4766;SDS011;2397;53.576;9.746;2022-07-29T13:09:36;3.17;;;2.13;;
4766;SDS011;2397;53.576;9.746;2022-07-29T13:12:05;3.70;;;2.20;;
4766;SDS011;2397;53.576;9.746;2022-07-29T13:14:40;7.33;;;2.70;;
4766;SDS011;2397;53.576;9.746;2022-07-29T13:17:08;6.53;;;2.57;;
4766;SDS011;2397;53.576;9.746;2022-07-29T13:19:50;5.37;;;2.37;;
4766;SDS011;2397;53.576;9.746;2022-07-29T13:22:21;4.13;;;2.20;;
4766;SDS011;2397;53.576;9.746;2022-07-29T13:51:30;6.73;;;2.70;;
4766;SDS011;2397;53.576;9.746;2022-07-29T13:53:55;4.37;;;2.33;;
4766;SDS011;2397;53.576;9.746;2022-07-29T13:56:20;2.70;;;2.10;;
4766;SDS011;2397;53.576;9.746;2022-07-29T13:58:46;21.67;;;3.73;;
4766;SDS011;2397;53.576;9.746;2022-07-29T14:01:11;5.90;;;2.60;;
4766;SDS011;2397;53.576;9.746;2022-07-29T14:03:36;3.57;;;2.50;;
4766;SDS011;2397;53.576;9.746;2022-07-29T14:06:05;5.90;;;2.60;;
4766;SDS011;2397;53.576;9.746;2022-07-29T14:08:30;2.80;;;2.07;;
4766;SDS011;2397;53.576;9.746;2022-07-29T14:10:56;5.03;;;2.63;;
4766;SDS011;2397;53.576;9.746;2022-07-29T14:13:21;4.97;;;2.47;;
4766;SDS011;2397;53.576;9.746;2022-07-29T14:15:46;4.97;;;2.60;;
4766;SDS011;2397;53.576;9.746;2022-07-29T14:18:11;3.60;;;2.30;;
4766;SDS011;2397;53.576;9.746;2022-07-29T14:20:37;4.27;;;2.50;;
4766;SDS011;2397;53.576;9.746;2022-07-29T14:23:02;7.70;;;2.60;;
4766;SDS011;2397;53.576;9.746;2022-07-29T14:25:27;2.80;;;2.40;;
4766;SDS011;2397;53.576;9.746;2022-07-29T14:27:52;6.17;;;2.80;;
4766;SDS011;2397;53.576;9.746;2022-07-29T14:30:19;3.10;;;2.57;;
4766;SDS011;2397;53.576;9.746;2022-07-29T14:32:44;7.47;;;2.60;;
4766;SDS011;2397;53.576;9.746;2022-07-29T14:35:09;2.70;;;2.27;;
4766;SDS011;2397;53.576;9.746;2022-07-29T14:37:37;2.43;;;2.23;;
4766;SDS011;2397;53.576;9.746;2022-07-29T14:40:03;2.70;;;2.50;;
4766;SDS011;2397;53.576;9.746;2022-07-29T14:42:29;10.60;;;2.70;;
4766;SDS011;2397;53.576;9.746;2022-07-29T14:44:56;3.90;;;2.60;;
4766;SDS011;2397;53.576;9.746;2022-07-29T14:47:21;4.13;;;2.47;;
4766;SDS011;2397;53.576;9.746;2022-07-29T14:49:47;4.17;;;2.30;;
4766;SDS011;2397;53.576;9.746;2022-07-29T14:52:12;4.43;;;2.57;;
4766;SDS011;2397;53.576;9.746;2022-07-29T14:54:38;5.80;;;2.87;;
4766;SDS011;2397;53.576;9.746;2022-07-29T14:57:03;6.17;;;2.67;;
4766;SDS011;2397;53.576;9.746;2022-07-29T14:59:28;4.90;;;2.90;;
4766;SDS011;2397;53.576;9.746;2022-07-29T15:01:53;3.60;;;2.50;;
4766;SDS011;2397;53.576;9.746;2022-07-29T15:04:19;4.13;;;2.80;;
4766;SDS011;2397;53.576;9.746;2022-07-29T15:06:45;3.67;;;2.37;;
4766;SDS011;2397;53.576;9.746;2022-07-29T15:09:10;6.87;;;2.67;;
4766;SDS011;2397;53.576;9.746;2022-07-29T15:11:35;8.57;;;2.33;;
4766;SDS011;2397;53.576;9.746;2022-07-29T15:14:00;3.53;;;2.40;;
4766;SDS011;2397;53.576;9.746;2022-07-29T15:16:26;3.13;;;2.60;;
4766;SDS011;2397;53.576;9.746;2022-07-29T15:18:51;6.20;;;2.70;;
4766;SDS011;2397;53.576;9.746;2022-07-29T15:21:16;2.53;;;2.30;;
4766;SDS011;2397;53.576;9.746;2022-07-29T15:23:42;9.10;;;3.20;;
4766;SDS011;2397;53.576;9.746;2022-07-29T15:26:07;2.47;;;2.27;;
4766;SDS011;2397;53.576;9.746;2022-07-29T15:28:33;3.17;;;2.40;;
4766;SDS011;2397;53.576;9.746;2022-07-29T15:30:58;5.03;;;2.50;;
4766;SDS011;2397;53.576;9.746;2022-07-29T15:33:23;3.10;;;2.40;;
4766;SDS011;2397;53.576;9.746;2022-07-29T15:35:48;10.00;;;2.80;;
4766;SDS011;2397;53.576;9.746;2022-07-29T15:38:15;3.63;;;2.50;;
4766;SDS011;2397;53.576;9.746;2022-07-29T15:40:40;6.13;;;2.43;;
4766;SDS011;2397;53.576;9.746;2022-07-29T15:43:07;5.73;;;2.50;;
4766;SDS011;2397;53.576;9.746;2022-07-29T15:45:36;3.07;;;2.50;;
4766;SDS011;2397;53.576;9.746;2022-07-29T15:48:03;6.17;;;2.53;;
4766;SDS011;2397;53.576;9.746;2022-07-29T15:50:33;4.23;;;2.73;;
4766;SDS011;2397;53.576;9.746;2022-07-29T15:52:58;3.73;;;2.17;;
4766;SDS011;2397;53.576;9.746;2022-07-29T15:55:24;3.67;;;2.50;;
4766;SDS011;2397;53.576;9.746;2022-07-29T15:57:49;3.60;;;2.30;;
4766;SDS011;2397;53.576;9.746;2022-07-29T16:00:15;3.77;;;2.47;;
4766;SDS011;2397;53.576;9.746;2022-07-29T16:02:41;6.00;;;2.70;;
4766;SDS011;2397;53.576;9.746;2022-07-29T16:05:07;4.13;;;2.40;;
4766;SDS011;2397;53.576;9.746;2022-07-29T16:07:32;3.93;;;2.57;;
4766;SDS011;2397;53.576;9.746;2022-07-29T16:09:57;3.70;;;2.53;;
4766;SDS011;2397;53.576;9.746;2022-07-29T16:12:23;5.30;;;2.30;;
4766;SDS011;2397;53.576;9.746;2022-07-29T16:14:48;6.97;;;2.73;;
4766;SDS011;2397;53.576;9.746;2022-07-29T16:17:14;8.63;;;2.40;;
4766;SDS011;2397;53.576;9.746;2022-07-29T16:19:41;4.80;;;2.40;;
4766;SDS011;2397;53.576;9.746;2022-07-29T16:22:07;4.40;;;2.43;;
4766;SDS011;2397;53.576;9.746;2022-07-29T16:24:32;4.37;;;2.20;;
4766;SDS011;2397;53.576;9.746;2022-07-29T16:26:57;8.03;;;2.87;;
4766;SDS011;2397;53.576;9.746;2022-07-29T16:29:23;4.43;;;2.67;;
4766;SDS011;2397;53.576;9.746;2022-07-29T16:31:48;8.30;;;2.60;;